In Rescue
 
Open Full Screen Window  High Contrast Mode
Wind Gusting 14 knots
10
October 25, 2021 4:51 PM EDT
Present Weather: Light Drizzle
Weather Information
Wind Direction
  010 °
Wind Speed
  10 kt (12 mph)
Wind Gust
  14 kt (16 mph)
Altimeter
29.83 in
Visibility
10 SM
Temperature
09° C
48° F
Dewpoint
07° C
45° F
Humidity
87%
1hr Rain Fall
00.01 in.
24hr Rain Fall
01.58 in.
Sky Condition
Overcast @ 1,500 ft
MVFR

METAR KFPK 252051Z AUTO 01010G14KT 10SM -DZ OVC015 09/07 A2983 RMK AO2 T00900070 P0001

FAA Disclaimer: The data displayed is for advisory purposes only and is not to be used for flight planning or operations.